Automated Weather Station

Magsaysay, Infanta, Quezon


Readings

as of November 11, 2016 04:01 PM
Wind Speed
3.4 mm
Rainfall Amount
0.14 mm
Rainfall Intensity
11.3 mm
Air Temperature
mm
Wind Direction
96 mm
Air Humidity
97.7 mm

Data Source: PREDICT (Advanced Science and Technology Institute)

12 HOUR DATA

PREVIOUS DATA

From
To
DateTime Wind Speed Rain Amount Rain Intensity Air Temperature Air Pressure Wind Direction Air Humidity
October 26, 2013 05:15 AM 1.6 0 mm 0 20.4 930.7 82 94.8
October 26, 2013 05:00 AM 0 0 mm 0 20.2 930.43 0 94.7
October 26, 2013 04:45 AM 0 0 mm 0 20.3 930.43 0 94.8
October 26, 2013 04:30 AM 2.5 0 mm 0 20.1 930.43 112 94.7
October 26, 2013 04:15 AM 0 0 mm 0 19.8 930.3 0 94.6
October 26, 2013 04:00 AM 0 0 mm 0 19.7 930.17 0 94.6
October 26, 2013 03:45 AM 3.7 0 mm 0 19.9 930.17 77 94.8
October 26, 2013 03:30 AM 0 0 mm 0 19.9 930.17 0 94.8
October 26, 2013 03:15 AM 0 0 mm 0 20 930.03 0 94.9
October 26, 2013 03:00 AM 2.4 0 mm 0 20 930.03 78 94.8
October 26, 2013 02:45 AM 0 0 mm 0 20 930.03 0 94.8
October 26, 2013 02:30 AM 4.5 0 mm 0 20.1 930.17 326 94.8
October 26, 2013 02:15 AM 0 0 mm 0 20.3 930.3 0 94.8
October 26, 2013 02:00 AM 0 0 mm 0 20.5 930.43 0 94.9
October 26, 2013 01:45 AM 4.3 0 mm 0 20.7 930.7 77 94.9
October 26, 2013 01:30 AM 0 0 mm 0 20.7 930.83 0 94.9
October 26, 2013 01:15 AM 0 0 mm 0 20.7 930.83 0 94.9
October 26, 2013 01:00 AM 0 0 mm 0 20.6 930.97 0 94.8
October 26, 2013 12:45 AM 0 0 mm 0 20.7 931.1 0 94.8
October 26, 2013 12:30 AM 0 0 mm 0 20.7 931.1 0 94.8
October 26, 2013 12:15 AM 8.5 0 mm 0 20.8 931.23 91 94.7
October 26, 2013 12:00 AM 0 0 mm 0 20.7 931.5 0 94.7
October 05, 0016 09:01 PM 5.1 0 mm 0 21.8 924.43 76 99.2
October 05, 0016 02:02 PM 6.3 0 mm 0 22.4 921.64 60 95.5
October 03, 0016 10:01 PM 13.2 0 mm 0 22.1 926.3 257 99.4
October 03, 0016 07:01 PM 8.4 0 mm 0 22.4 925.24 261 99.3
September 27, 0016 08:01 AM 16.7 0 mm 0 22.4 922.3 254 99.3
September 26, 0016 06:01 PM 10.5 0 mm 0 22.3 922.84 229 96.2
September 15, 0016 07:01 PM 7.5 0 mm 0 22.5 924.04 278 98.1
September 15, 0016 06:01 PM 9 0 mm 0 22.8 923.64 246 97.8